Time;durP1;ratioP1;P1;durP2;ratioP2;P2;SDS_P1;SDS_P2;PMS_P1;PMS_P2;Temp;Humidity;BMP_temperature;BMP_pressure;BME280_temperature;BME280_humidity;BME280_pressure;Samples;Min_cycle;Max_cycle;Signal;HPM_P1;HPM_P2
2023/03/18 00:00:31;;;;;;;16.97;15.20;;;12.30;99.90;;;;;;5087013;28;20458;-69
2023/03/18 00:02:59;;;;;;;15.50;14.33;;;12.40;99.90;;;;;;5085472;28;20543;-72
2023/03/18 00:05:25;;;;;;;15.87;14.60;;;12.40;99.90;;;;;;5089276;28;20478;-71
2023/03/18 00:07:52;;;;;;;18.67;14.10;;;12.40;99.90;;;;;;5096394;28;20457;-70
2023/03/18 00:10:20;;;;;;;14.70;13.67;;;12.40;99.90;;;;;;5093840;28;20453;-70
2023/03/18 00:12:46;;;;;;;16.30;14.43;;;12.50;99.90;;;;;;5088434;28;20485;-70
2023/03/18 00:15:17;;;;;;;22.50;14.40;;;12.50;99.90;;;;;;5087838;28;20498;-70
2023/03/18 00:17:44;;;;;;;15.03;13.93;;;12.50;99.90;;;;;;5088310;28;20980;-69
2023/03/18 00:20:12;;;;;;;15.90;14.40;;;12.50;99.90;;;;;;5098452;28;20466;-70
2023/03/18 00:22:42;;;;;;;15.73;14.23;;;12.40;99.90;;;;;;5091383;28;20458;-69
2023/03/18 00:25:10;;;;;;;15.70;14.60;;;12.40;99.90;;;;;;5089146;28;21038;-70
2023/03/18 00:27:38;;;;;;;16.13;14.83;;;12.30;99.90;;;;;;5088801;28;20929;-69
2023/03/18 00:30:07;;;;;;;21.43;14.70;;;12.30;99.90;;;;;;5087372;28;20550;-70
2023/03/18 00:32:35;;;;;;;20.60;14.10;;;12.10;99.90;;;;;;5085987;28;20473;-71
2023/03/18 00:35:03;;;;;;;14.03;13.03;;;12.00;99.90;;;;;;5090912;28;20457;-68
2023/03/18 00:37:30;;;;;;;18.47;13.70;;;12.00;99.90;;;;;;5086396;28;20873;-70
2023/03/18 00:39:58;;;;;;;17.03;13.93;;;11.90;99.90;;;;;;5094707;28;20448;-70
2023/03/18 00:42:25;;;;;;;17.87;13.30;;;11.90;99.90;;;;;;5087857;28;20482;-70
2023/03/18 00:44:52;;;;;;;26.07;14.53;;;11.80;99.90;;;;;;5093486;28;20458;-73
2023/03/18 00:47:20;;;;;;;17.67;14.50;;;11.80;99.90;;;;;;5086349;28;20967;-69
2023/03/18 00:49:50;;;;;;;24.23;13.87;;;11.80;99.90;;;;;;5100033;28;20458;-70
2023/03/18 00:52:18;;;;;;;25.73;14.73;;;11.80;99.90;;;;;;5093647;28;20469;-69
2023/03/18 00:54:45;;;;;;;15.40;14.00;;;11.80;99.90;;;;;;5089981;28;20660;-69
2023/03/18 00:57:12;;;;;;;21.60;13.77;;;11.80;99.90;;;;;;5087662;28;20942;-69
2023/03/18 00:59:38;;;;;;;15.37;13.63;;;11.90;99.90;;;;;;5085702;28;20968;-69
2023/03/18 01:02:05;;;;;;;17.33;12.83;;;12.00;99.90;;;;;;5090590;28;20504;-69
2023/03/18 01:04:32;;;;;;;22.43;13.47;;;12.00;99.90;;;;;;5092491;28;20468;-72
2023/03/18 01:07:01;;;;;;;28.63;17.57;;;11.90;99.90;;;;;;5093835;28;20583;-68
2023/03/18 01:09:28;;;;;;;24.50;18.83;;;11.90;99.90;;;;;;5094297;28;20465;-69
2023/03/18 01:11:55;;;;;;;24.87;18.50;;;11.90;99.90;;;;;;5093595;28;20466;-71
2023/03/18 01:14:22;;;;;;;20.53;18.30;;;11.90;99.90;;;;;;5100178;28;20457;-69
2023/03/18 01:16:49;;;;;;;20.17;18.27;;;11.80;99.90;;;;;;5095418;28;20457;-69
2023/03/18 01:19:17;;;;;;;36.40;19.00;;;11.70;99.90;;;;;;5087464;28;20489;-69
2023/03/18 01:21:44;;;;;;;22.07;18.43;;;11.70;99.90;;;;;;5091038;28;20531;-69
2023/03/18 01:24:12;;;;;;;21.03;19.00;;;11.60;99.90;;;;;;5087511;28;20465;-69
2023/03/18 01:26:38;;;;;;;21.63;18.00;;;11.60;99.90;;;;;;5097476;28;20496;-69
2023/03/18 01:29:05;;;;;;;23.20;18.03;;;11.60;99.90;;;;;;5089128;28;20999;-69
2023/03/18 01:31:33;;;;;;;23.23;17.50;;;11.50;99.90;;;;;;5084231;28;20951;-69
2023/03/18 01:34:01;;;;;;;20.13;18.10;;;11.40;99.90;;;;;;5093071;28;20460;-70
2023/03/18 01:36:28;;;;;;;21.43;17.70;;;11.40;99.90;;;;;;5092229;28;20940;-70
2023/03/18 01:38:56;;;;;;;25.10;17.60;;;11.40;99.90;;;;;;5094210;28;21169;-70
2023/03/18 01:41:25;;;;;;;22.27;18.50;;;11.30;99.90;;;;;;5087971;28;20558;-69
2023/03/18 01:43:53;;;;;;;18.07;16.60;;;11.30;99.90;;;;;;5101644;28;20553;-71
2023/03/18 01:46:34;;;;;;;21.50;17.27;;;11.20;99.90;;;;;;5092281;28;20577;-70
2023/03/18 01:49:02;;;;;;;18.73;17.20;;;11.20;99.90;;;;;;5097560;28;20453;-70
2023/03/18 01:51:29;;;;;;;21.43;18.07;;;11.00;99.90;;;;;;5097003;28;20964;-71
2023/03/18 01:54:00;;;;;;;22.20;16.30;;;10.80;99.90;;;;;;5091486;28;20464;-69
2023/03/18 01:56:28;;;;;;;17.30;16.00;;;10.80;99.90;;;;;;5088673;28;20461;-71
2023/03/18 01:58:57;;;;;;;21.87;16.90;;;10.60;99.90;;;;;;5097175;28;20542;-70
2023/03/18 02:01:28;;;;;;;17.93;16.33;;;10.40;99.90;;;;;;5094382;28;20886;-69
2023/03/18 02:03:56;;;;;;;19.03;16.60;;;10.20;99.90;;;;;;5093245;28;20466;-71
2023/03/18 02:06:24;;;;;;;17.90;16.33;;;10.00;99.90;;;;;;5090896;28;20485;-69
2023/03/18 02:08:51;;;;;;;17.70;15.60;;;9.90;99.90;;;;;;5095733;28;20489;-69
2023/03/18 02:11:18;;;;;;;18.00;16.00;;;9.90;99.90;;;;;;5096332;28;20483;-71
2023/03/18 02:13:47;;;;;;;16.53;15.00;;;9.90;99.90;;;;;;5096263;28;20461;-69
2023/03/18 02:16:18;;;;;;;16.80;15.07;;;9.80;99.90;;;;;;5094712;28;20561;-69
2023/03/18 02:18:49;;;;;;;16.37;14.90;;;9.70;99.90;;;;;;5096296;28;20465;-71
2023/03/18 02:21:33;;;;;;;18.80;15.93;;;9.60;99.90;;;;;;5095080;28;20551;-69
2023/03/18 02:24:12;;;;;;;16.43;14.83;;;9.50;99.90;;;;;;5088991;28;20475;-71
2023/03/18 02:26:47;;;;;;;16.43;15.10;;;9.40;99.90;;;;;;5091860;28;20485;-69
2023/03/18 02:29:18;;;;;;;25.37;16.17;;;9.40;99.90;;;;;;5089529;28;20464;-70
2023/03/18 02:31:46;;;;;;;22.53;15.83;;;9.40;99.90;;;;;;5091916;28;20551;-71
2023/03/18 02:34:14;;;;;;;15.90;14.73;;;9.40;99.90;;;;;;5090475;28;20450;-69
2023/03/18 02:36:41;;;;;;;16.40;14.63;;;9.30;99.90;;;;;;5099382;28;20449;-70
2023/03/18 02:39:13;;;;;;;16.37;14.87;;;9.20;99.90;;;;;;5095273;28;20965;-69
2023/03/18 02:41:40;;;;;;;16.67;15.23;;;9.10;99.90;;;;;;5096698;28;21050;-69
2023/03/18 02:44:07;;;;;;;15.83;14.67;;;9.10;99.90;;;;;;5088113;28;20473;-69
2023/03/18 02:46:44;;;;;;;18.40;15.97;;;9.00;99.90;;;;;;5093505;28;20589;-69
2023/03/18 02:49:11;;;;;;;18.93;17.13;;;8.80;99.90;;;;;;5097294;28;20475;-69
2023/03/18 02:51:38;;;;;;;18.50;16.07;;;8.80;99.90;;;;;;5094207;28;20849;-71
2023/03/18 02:54:08;;;;;;;16.10;14.40;;;8.80;99.90;;;;;;5087513;28;20928;-69
2023/03/18 02:56:36;;;;;;;17.23;15.13;;;8.90;99.90;;;;;;5091563;28;20469;-69
2023/03/18 02:59:03;;;;;;;16.47;14.93;;;8.90;99.90;;;;;;5089652;28;20460;-69
2023/03/18 03:01:32;;;;;;;18.17;14.87;;;8.90;99.90;;;;;;5100996;28;20462;-71
2023/03/18 03:04:01;;;;;;;16.13;14.43;;;8.90;99.90;;;;;;5092291;28;20934;-68
2023/03/18 03:06:28;;;;;;;15.67;14.10;;;8.90;99.90;;;;;;5093681;28;20505;-68
2023/03/18 03:08:56;;;;;;;16.87;15.13;;;8.90;99.90;;;;;;5093047;28;20547;-68
2023/03/18 03:11:24;;;;;;;15.97;14.47;;;8.80;99.90;;;;;;5090087;28;20521;-71
2023/03/18 03:13:51;;;;;;;17.30;15.60;;;8.80;99.90;;;;;;5094057;28;20914;-71
2023/03/18 03:16:19;;;;;;;19.60;15.03;;;8.70;99.90;;;;;;5095146;28;20450;-71
2023/03/18 03:18:46;;;;;;;15.20;13.90;;;8.60;99.90;;;;;;5096179;28;20485;-71
2023/03/18 03:21:15;;;;;;;16.27;14.57;;;8.50;99.90;;;;;;5097931;28;20462;-69
2023/03/18 03:23:45;;;;;;;15.90;14.40;;;8.50;99.90;;;;;;5092349;28;20464;-69
2023/03/18 03:26:12;;;;;;;16.73;15.07;;;8.60;99.90;;;;;;5090759;28;20998;-70
2023/03/18 03:28:39;;;;;;;14.33;13.23;;;8.60;99.90;;;;;;5088587;28;20796;-71
2023/03/18 03:31:07;;;;;;;15.00;13.60;;;8.60;99.90;;;;;;5088517;28;20477;-69
2023/03/18 03:33:35;;;;;;;16.33;14.83;;;8.60;99.90;;;;;;5089050;28;20501;-69
2023/03/18 03:36:01;;;;;;;14.40;12.97;;;8.60;99.90;;;;;;5094133;28;20503;-69
2023/03/18 03:38:31;;;;;;;15.90;13.93;;;8.50;99.90;;;;;;5096793;28;20458;-70
2023/03/18 03:40:58;;;;;;;15.13;13.60;;;8.50;99.90;;;;;;5098131;28;20875;-70
2023/03/18 03:43:25;;;;;;;15.37;14.20;;;8.60;99.90;;;;;;5099265;28;20486;-69
2023/03/18 03:45:52;;;;;;;16.57;14.30;;;8.60;99.90;;;;;;5092355;28;20827;-71
2023/03/18 03:48:19;;;;;;;15.00;13.60;;;8.70;99.90;;;;;;5094843;28;20945;-68
2023/03/18 03:50:46;;;;;;;13.37;12.27;;;8.80;99.90;;;;;;5092070;28;20982;-70
2023/03/18 03:53:13;;;;;;;15.50;12.00;;;8.90;99.90;;;;;;5091245;28;20538;-71
2023/03/18 03:55:42;;;;;;;13.30;12.20;;;8.90;99.90;;;;;;5095116;28;20462;-69
2023/03/18 03:58:09;;;;;;;13.73;12.43;;;9.00;99.90;;;;;;5095059;28;20863;-69
2023/03/18 04:00:37;;;;;;;12.33;11.20;;;9.10;99.90;;;;;;5088591;28;20827;-69
2023/03/18 04:03:04;;;;;;;11.37;10.40;;;9.20;99.90;;;;;;5086772;28;20458;-69
2023/03/18 04:05:30;;;;;;;11.83;10.80;;;9.40;99.90;;;;;;5088411;28;20557;-69
2023/03/18 04:07:58;;;;;;;10.57;9.77;;;9.50;99.90;;;;;;5096744;28;20493;-70
2023/03/18 04:10:26;;;;;;;10.60;9.60;;;9.70;99.90;;;;;;5093582;28;20630;-67
2023/03/18 04:12:55;;;;;;;10.87;9.73;;;9.80;99.90;;;;;;5094112;28;20457;-68
2023/03/18 04:15:22;;;;;;;10.07;9.17;;;9.90;99.90;;;;;;5087053;28;20465;-68
2023/03/18 04:17:50;;;;;;;9.47;8.50;;;10.00;99.90;;;;;;5089970;28;20926;-71
2023/03/18 04:20:18;;;;;;;10.70;9.17;;;10.10;99.90;;;;;;5095746;28;20827;-70
2023/03/18 04:22:45;;;;;;;8.33;7.53;;;10.20;99.90;;;;;;5098529;28;20491;-69
2023/03/18 04:25:13;;;;;;;10.13;8.70;;;10.30;99.90;;;;;;5091882;28;20477;-70
2023/03/18 04:27:41;;;;;;;9.30;7.37;;;10.40;99.90;;;;;;5090605;28;20770;-71
2023/03/18 04:30:11;;;;;;;8.83;7.90;;;10.40;99.90;;;;;;5091229;28;20498;-68
2023/03/18 04:32:38;;;;;;;7.30;6.60;;;10.40;99.90;;;;;;5083448;28;20640;-70
2023/03/18 04:35:06;;;;;;;11.20;7.03;;;10.50;99.90;;;;;;5090508;28;20821;-69
2023/03/18 04:37:35;;;;;;;7.80;7.00;;;10.50;99.90;;;;;;5098953;28;21032;-69
2023/03/18 04:40:05;;;;;;;11.70;6.90;;;10.40;99.90;;;;;;5092221;28;20908;-70
2023/03/18 04:42:31;;;;;;;7.13;6.50;;;10.40;99.90;;;;;;5090894;28;20490;-70
2023/03/18 04:45:00;;;;;;;7.40;6.70;;;10.40;99.90;;;;;;5092508;28;20519;-69
2023/03/18 04:47:29;;;;;;;7.77;6.63;;;10.50;99.90;;;;;;5089505;28;21038;-70
2023/03/18 04:49:55;;;;;;;6.97;6.37;;;10.40;99.90;;;;;;5091472;28;20495;-70
2023/03/18 04:52:23;;;;;;;7.03;6.37;;;10.40;99.90;;;;;;5090909;28;20553;-68
2023/03/18 04:54:50;;;;;;;7.27;6.07;;;10.50;99.90;;;;;;5089516;28;20462;-70
2023/03/18 04:57:18;;;;;;;7.47;6.70;;;10.40;99.90;;;;;;5096307;28;20981;-69
2023/03/18 04:59:45;;;;;;;11.30;6.20;;;10.40;99.90;;;;;;5086130;28;20454;-69
2023/03/18 05:02:12;;;;;;;6.67;6.07;;;10.40;99.90;;;;;;5094199;28;20726;-70
2023/03/18 05:04:40;;;;;;;6.70;5.77;;;10.40;99.90;;;;;;5091067;28;20460;-70
2023/03/18 05:07:08;;;;;;;7.07;6.40;;;10.30;99.90;;;;;;5090277;28;20551;-71
2023/03/18 05:09:35;;;;;;;6.30;5.90;;;10.30;99.90;;;;;;5089281;28;20489;-70
2023/03/18 05:12:02;;;;;;;7.47;6.77;;;10.20;99.90;;;;;;5092705;28;20510;-69
2023/03/18 05:14:29;;;;;;;6.70;6.10;;;10.20;99.90;;;;;;5094337;28;20493;-71
2023/03/18 05:16:56;;;;;;;8.93;6.93;;;10.20;99.90;;;;;;5087853;28;20842;-70
2023/03/18 05:19:24;;;;;;;7.90;7.03;;;10.10;99.90;;;;;;5098822;28;20490;-69
2023/03/18 05:21:52;;;;;;;8.90;6.90;;;10.10;99.90;;;;;;5094056;28;20974;-72
2023/03/18 05:24:19;;;;;;;8.13;7.37;;;10.00;99.90;;;;;;5090000;28;20450;-69
2023/03/18 05:26:46;;;;;;;8.07;7.30;;;10.00;99.90;;;;;;5088295;28;20843;-69
2023/03/18 05:29:13;;;;;;;9.00;6.93;;;10.00;99.90;;;;;;5087796;28;20499;-71
2023/03/18 05:31:40;;;;;;;9.10;7.20;;;10.00;99.90;;;;;;5089903;28;20462;-72
2023/03/18 05:34:07;;;;;;;8.73;7.80;;;9.90;99.90;;;;;;5092504;28;20469;-71
2023/03/18 05:36:35;;;;;;;8.33;7.47;;;9.90;99.90;;;;;;5089863;28;20458;-69
2023/03/18 05:39:03;;;;;;;8.10;7.20;;;9.80;99.90;;;;;;5094639;28;20970;-70
2023/03/18 05:41:30;;;;;;;7.97;7.23;;;9.70;99.90;;;;;;5087763;28;20472;-71
2023/03/18 05:43:57;;;;;;;10.83;7.30;;;9.70;99.90;;;;;;5095968;28;20469;-72
2023/03/18 05:46:23;;;;;;;9.30;8.30;;;9.70;99.90;;;;;;5086943;28;21002;-70
2023/03/18 05:48:50;;;;;;;8.27;7.43;;;9.70;99.90;;;;;;5087376;28;20468;-70
2023/03/18 05:51:17;;;;;;;9.83;7.80;;;9.70;99.90;;;;;;5089639;28;20928;-71
2023/03/18 05:53:44;;;;;;;8.80;8.07;;;9.60;99.90;;;;;;5085245;28;20469;-72
2023/03/18 05:56:13;;;;;;;10.40;8.03;;;9.60;99.90;;;;;;5092141;28;20810;-69
2023/03/18 05:58:40;;;;;;;10.13;7.67;;;9.50;99.90;;;;;;5087527;28;20453;-72
2023/03/18 06:01:07;;;;;;;9.23;8.13;;;9.50;99.90;;;;;;5085261;28;20469;-69
2023/03/18 06:03:34;;;;;;;9.33;8.20;;;9.50;99.90;;;;;;5085982;28;20465;-72
2023/03/18 06:06:01;;;;;;;8.07;7.30;;;9.50;99.90;;;;;;5087818;28;21144;-70
2023/03/18 06:08:28;;;;;;;8.60;7.90;;;9.50;99.90;;;;;;5096045;28;20585;-69
2023/03/18 06:10:55;;;;;;;9.07;8.17;;;9.40;99.90;;;;;;5097102;28;20641;-70
2023/03/18 06:13:24;;;;;;;18.50;8.23;;;9.40;99.90;;;;;;5083543;28;20466;-69
2023/03/18 06:15:56;;;;;;;10.93;7.50;;;9.30;99.90;;;;;;5093362;28;20807;-69
2023/03/18 06:18:24;;;;;;;9.33;8.10;;;9.20;99.90;;;;;;5094212;28;20450;-69
2023/03/18 06:20:51;;;;;;;9.27;8.47;;;9.20;99.90;;;;;;5095411;28;20499;-69
2023/03/18 06:23:18;;;;;;;9.27;8.47;;;9.30;99.90;;;;;;5096392;28;20522;-69
2023/03/18 06:25:46;;;;;;;11.20;9.60;;;9.30;99.90;;;;;;5093936;28;20473;-69
2023/03/18 06:28:13;;;;;;;9.97;8.40;;;9.30;99.90;;;;;;5097954;28;20671;-69
2023/03/18 06:30:42;;;;;;;10.37;9.53;;;9.30;99.90;;;;;;5093204;28;20461;-69
2023/03/18 06:33:09;;;;;;;14.97;9.00;;;9.40;99.90;;;;;;5098839;28;20513;-70
2023/03/18 06:35:36;;;;;;;13.30;8.60;;;9.40;99.90;;;;;;5091090;28;20498;-69
2023/03/18 06:38:04;;;;;;;9.10;7.90;;;9.50;99.90;;;;;;5097207;28;20481;-71
2023/03/18 06:40:31;;;;;;;9.00;8.10;;;9.50;99.90;;;;;;5094317;28;20469;-70
2023/03/18 06:42:58;;;;;;;10.57;8.87;;;9.60;99.90;;;;;;5092856;28;20501;-69
2023/03/18 06:45:25;;;;;;;9.70;8.83;;;9.60;99.90;;;;;;5095886;28;20562;-69
2023/03/18 06:47:53;;;;;;;8.73;7.87;;;9.70;99.90;;;;;;5091653;28;20493;-69
2023/03/18 06:50:21;;;;;;;10.40;8.50;;;9.70;99.90;;;;;;5093400;28;21175;-69
2023/03/18 06:52:48;;;;;;;9.10;7.40;;;9.80;99.90;;;;;;5094067;28;20461;-70
2023/03/18 06:55:15;;;;;;;10.07;8.83;;;9.80;99.90;;;;;;5090771;28;20499;-69
2023/03/18 06:57:42;;;;;;;12.47;9.37;;;9.90;99.90;;;;;;5088480;28;20469;-69
2023/03/18 07:00:10;;;;;;;10.33;9.37;;;10.10;99.90;;;;;;5091613;28;20465;-69
2023/03/18 07:02:37;;;;;;;10.80;7.63;;;10.30;99.90;;;;;;5089807;28;20476;-69
2023/03/18 07:05:06;;;;;;;9.23;8.27;;;10.40;99.90;;;;;;5090726;28;20461;-69
2023/03/18 07:07:36;;;;;;;8.67;7.73;;;10.60;99.90;;;;;;5093384;28;20862;-71
2023/03/18 07:10:04;;;;;;;8.33;7.53;;;10.70;99.90;;;;;;5093561;28;20461;-70
2023/03/18 07:12:31;;;;;;;10.03;6.63;;;10.80;99.90;;;;;;5093637;28;20468;-69
2023/03/18 07:14:58;;;;;;;10.80;7.83;;;10.90;99.90;;;;;;5093776;28;20453;-69
2023/03/18 07:17:25;;;;;;;8.63;7.90;;;10.90;99.90;;;;;;5092774;28;20461;-70
2023/03/18 07:19:52;;;;;;;7.93;7.23;;;11.00;99.90;;;;;;5095206;28;20473;-69
2023/03/18 07:22:21;;;;;;;8.30;7.50;;;11.10;99.90;;;;;;5088731;28;20492;-70
2023/03/18 07:24:48;;;;;;;9.33;7.40;;;11.30;99.90;;;;;;5094760;28;20512;-70
2023/03/18 07:27:16;;;;;;;14.27;8.07;;;11.40;99.90;;;;;;5088563;28;20461;-69
2023/03/18 07:29:43;;;;;;;10.10;7.97;;;11.50;99.90;;;;;;5093015;28;20460;-71
2023/03/18 07:32:09;;;;;;;12.93;8.20;;;11.60;99.90;;;;;;5089627;28;20846;-71
2023/03/18 07:34:36;;;;;;;7.87;7.13;;;11.70;99.90;;;;;;5090336;28;20462;-70
2023/03/18 07:37:03;;;;;;;8.43;7.73;;;11.80;99.90;;;;;;5096892;28;20453;-70
2023/03/18 07:39:32;;;;;;;9.13;8.00;;;11.80;99.90;;;;;;5094549;28;20521;-69
2023/03/18 07:42:00;;;;;;;12.23;7.33;;;12.00;99.90;;;;;;5090282;28;20617;-69
2023/03/18 07:44:28;;;;;;;10.47;8.47;;;12.20;99.90;;;;;;5091450;28;20466;-70
2023/03/18 07:46:55;;;;;;;10.23;7.60;;;12.30;99.90;;;;;;5087652;28;20457;-72
2023/03/18 07:49:23;;;;;;;11.97;8.67;;;12.50;99.90;;;;;;5098239;28;20551;-70
2023/03/18 07:51:51;;;;;;;9.97;8.97;;;12.60;99.90;;;;;;5092258;28;20466;-70
2023/03/18 07:54:18;;;;;;;10.97;9.83;;;12.80;99.90;;;;;;5086782;28;20947;-70
2023/03/18 07:56:47;;;;;;;18.43;10.63;;;13.10;99.90;;;;;;5090410;28;20453;-71
2023/03/18 07:59:14;;;;;;;9.73;8.90;;;13.20;99.90;;;;;;5089809;28;20960;-70
2023/03/18 08:01:41;;;;;;;10.47;9.57;;;13.50;99.90;;;;;;5091843;28;20462;-70
2023/03/18 08:04:09;;;;;;;10.73;9.67;;;13.70;99.90;;;;;;5089427;28;20466;-70
2023/03/18 08:06:37;;;;;;;9.60;9.00;;;13.80;99.90;;;;;;5096485;28;20528;-72
2023/03/18 08:09:04;;;;;;;11.30;10.20;;;13.90;99.90;;;;;;5092869;28;20552;-72
2023/03/18 08:11:31;;;;;;;10.27;9.37;;;14.00;99.90;;;;;;5091665;28;20893;-70
2023/03/18 08:14:00;;;;;;;13.10;10.60;;;14.20;99.90;;;;;;5091853;28;20969;-71
2023/03/18 08:16:27;;;;;;;11.53;10.80;;;14.30;99.90;;;;;;5091702;28;20462;-70
2023/03/18 08:18:54;;;;;;;12.50;11.57;;;14.30;99.90;;;;;;5088780;28;20472;-71
2023/03/18 08:21:21;;;;;;;12.70;11.67;;;14.30;99.90;;;;;;5100984;28;20457;-69
2023/03/18 08:23:48;;;;;;;13.43;12.50;;;14.40;99.90;;;;;;5092300;28;20962;-70
2023/03/18 08:26:15;;;;;;;13.40;12.20;;;14.40;99.90;;;;;;5088643;28;20839;-72
2023/03/18 08:28:42;;;;;;;12.20;11.40;;;14.40;99.90;;;;;;5091300;28;20509;-72
2023/03/18 08:31:10;;;;;;;12.27;11.40;;;14.30;99.90;;;;;;5085843;28;21188;-72
2023/03/18 08:33:37;;;;;;;11.83;11.13;;;14.30;99.90;;;;;;5095058;28;20547;-71
2023/03/18 08:36:07;;;;;;;12.90;12.00;;;14.30;99.90;;;;;;5091541;28;20457;-71
2023/03/18 08:38:34;;;;;;;13.50;12.00;;;14.40;99.90;;;;;;5087976;28;20555;-69
2023/03/18 08:41:00;;;;;;;13.07;12.27;;;14.40;99.90;;;;;;5085608;28;21038;-72
2023/03/18 08:43:27;;;;;;;13.10;12.23;;;14.40;99.90;;;;;;5086815;28;20977;-71
2023/03/18 08:45:55;;;;;;;12.67;11.97;;;14.50;99.90;;;;;;5083857;28;20473;-70
2023/03/18 08:48:24;;;;;;;12.53;11.83;;;14.60;99.90;;;;;;5087375;28;20481;-70
2023/03/18 08:50:51;;;;;;;12.83;12.13;;;14.60;99.90;;;;;;5075411;28;20458;-70
2023/03/18 08:53:19;;;;;;;13.10;12.03;;;14.50;99.90;;;;;;5086143;28;20464;-70
2023/03/18 08:55:47;;;;;;;12.63;11.83;;;14.50;99.90;;;;;;5080918;28;20462;-71
2023/03/18 08:58:14;;;;;;;13.00;12.20;;;14.70;99.90;;;;;;5087246;28;20888;-70
2023/03/18 09:00:41;;;;;;;12.87;12.07;;;14.90;99.90;;;;;;5086075;28;20911;-70
2023/03/18 09:03:09;;;;;;;15.27;13.60;;;15.00;99.90;;;;;;5083845;28;20462;-70
2023/03/18 09:05:38;;;;;;;14.17;13.33;;;15.10;99.90;;;;;;5089479;28;20461;-71
2023/03/18 09:08:05;;;;;;;13.63;12.87;;;15.00;99.90;;;;;;5090068;28;20658;-71
2023/03/18 09:10:33;;;;;;;14.67;13.50;;;15.00;99.90;;;;;;5086726;28;20754;-72
2023/03/18 09:13:00;;;;;;;14.83;13.90;;;15.10;99.90;;;;;;5085212;28;20605;-72
2023/03/18 09:15:28;;;;;;;14.30;13.60;;;15.20;99.90;;;;;;5092038;28;20485;-73
2023/03/18 09:17:55;;;;;;;15.93;14.37;;;15.30;99.90;;;;;;5089477;28;20468;-71
2023/03/18 09:20:22;;;;;;;14.40;13.60;;;15.30;99.90;;;;;;5086994;28;20462;-72
2023/03/18 09:22:51;;;;;;;14.33;13.47;;;15.40;99.90;;;;;;5083736;28;20828;-72
2023/03/18 09:25:18;;;;;;;13.87;12.97;;;15.40;99.90;;;;;;5087805;28;20551;-72
2023/03/18 09:27:45;;;;;;;14.37;13.50;;;15.40;99.90;;;;;;5086800;28;20457;-71
2023/03/18 09:30:14;;;;;;;13.20;12.40;;;15.50;99.90;;;;;;5086042;28;20519;-71
2023/03/18 09:32:41;;;;;;;14.40;13.70;;;15.40;99.90;;;;;;5091635;28;20449;-71
2023/03/18 09:35:09;;;;;;;14.33;13.50;;;15.40;99.90;;;;;;5088999;28;20464;-70
2023/03/18 09:37:36;;;;;;;14.63;13.70;;;15.40;99.90;;;;;;5089478;28;20465;-72
2023/03/18 09:40:07;;;;;;;15.80;14.60;;;15.30;99.90;;;;;;5085633;28;20905;-71
2023/03/18 09:42:50;;;;;;;15.30;14.20;;;15.20;99.90;;;;;;5083941;28;20614;-72
2023/03/18 09:45:32;;;;;;;14.47;13.67;;;15.30;99.90;;;;;;5091008;28;20523;-72
2023/03/18 09:48:25;;;;;;;15.13;14.03;;;15.40;99.90;;;;;;5089038;28;20466;-71
2023/03/18 09:51:03;;;;;;;15.30;14.00;;;15.70;99.90;;;;;;5092356;28;20515;-71
2023/03/18 09:53:41;;;;;;;15.20;14.40;;;16.30;99.90;;;;;;5085182;28;20457;-73
2023/03/18 09:56:16;;;;;;;15.23;14.13;;;17.20;99.90;;;;;;5091244;28;20456;-71
2023/03/18 09:58:49;;;;;;;15.33;14.30;;;18.10;99.90;;;;;;5090053;28;20625;-71
2023/03/18 10:01:18;;;;;;;15.30;14.43;;;18.80;99.90;;;;;;5087597;28;20492;-72
2023/03/18 10:03:51;;;;;;;14.80;14.00;;;19.00;99.90;;;;;;5090060;28;20453;-71
2023/03/18 10:06:19;;;;;;;15.13;14.23;;;19.50;99.90;;;;;;5088832;28;20708;-71
2023/03/18 10:08:52;;;;;;;14.70;13.90;;;19.40;99.90;;;;;;5091878;28;20496;-72
2023/03/18 10:11:26;;;;;;;15.80;14.40;;;19.20;99.90;;;;;;5090923;28;20557;-73
2023/03/18 10:14:07;;;;;;;15.37;14.47;;;19.30;99.90;;;;;;5092825;28;20560;-69
2023/03/18 10:16:44;;;;;;;20.53;15.67;;;19.20;99.90;;;;;;5093936;28;20598;-69
2023/03/18 10:19:11;;;;;;;15.90;15.00;;;19.20;99.90;;;;;;5090141;28;20461;-71
2023/03/18 10:21:45;;;;;;;16.50;15.20;;;19.80;99.90;;;;;;5089735;28;20488;-70
2023/03/18 10:24:29;;;;;;;15.20;14.40;;;20.30;99.90;;;;;;5091214;28;20468;-70
2023/03/18 10:27:07;;;;;;;16.27;15.07;;;20.20;99.90;;;;;;5094278;28;20449;-70
2023/03/18 10:29:41;;;;;;;15.77;14.87;;;20.00;99.90;;;;;;5090233;28;20489;-70
2023/03/18 10:32:17;;;;;;;15.60;14.63;;;19.00;99.90;;;;;;5090720;28;20965;-70
2023/03/18 10:34:56;;;;;;;15.17;14.37;;;17.90;99.90;;;;;;5092035;28;20572;-70
2023/03/18 10:37:33;;;;;;;15.00;14.20;;;17.60;99.90;;;;;;5088127;28;20465;-69
2023/03/18 10:40:00;;;;;;;15.20;14.10;;;17.80;99.90;;;;;;5095361;28;20462;-70
2023/03/18 10:42:31;;;;;;;15.00;14.20;;;18.30;99.90;;;;;;5090050;28;20493;-70
2023/03/18 10:45:16;;;;;;;16.20;14.67;;;18.70;99.90;;;;;;5090644;28;20805;-71
2023/03/18 10:47:45;;;;;;;15.77;14.60;;;18.70;99.90;;;;;;5088674;28;20452;-69
2023/03/18 10:50:17;;;;;;;14.77;13.97;;;19.40;99.90;;;;;;5083197;28;20504;-69
2023/03/18 10:52:52;;;;;;;14.43;13.63;;;20.10;99.90;;;;;;5091607;28;20461;-70
2023/03/18 10:55:22;;;;;;;15.40;14.50;;;20.80;99.90;;;;;;5088047;28;20959;-72
2023/03/18 10:57:50;;;;;;;15.27;14.53;;;20.80;99.90;;;;;;5090117;28;20472;-71
2023/03/18 11:00:27;;;;;;;15.33;14.53;;;20.60;99.90;;;;;;5094770;28;20463;-69
2023/03/18 11:02:55;;;;;;;16.97;15.63;;;21.50;99.90;;;;;;5090248;28;20457;-70
2023/03/18 11:05:26;;;;;;;15.40;14.23;;;22.20;99.90;;;;;;5089225;28;20465;-69
2023/03/18 11:07:57;;;;;;;15.40;14.50;;;23.10;99.90;;;;;;5089734;28;20458;-70
2023/03/18 11:10:27;;;;;;;15.30;14.40;;;23.10;99.90;;;;;;5087445;28;21053;-69
2023/03/18 11:12:59;;;;;;;15.70;14.90;;;22.50;99.90;;;;;;5086701;28;20462;-69
2023/03/18 11:15:25;;;;;;;15.30;14.50;;;22.20;99.90;;;;;;5091530;28;20553;-69
2023/03/18 11:17:57;;;;;;;15.57;14.77;;;21.80;99.90;;;;;;5092695;28;20829;-69
2023/03/18 11:20:36;;;;;;;16.77;15.87;;;22.30;99.90;;;;;;5093266;28;20466;-69
2023/03/18 11:23:11;;;;;;;17.70;16.40;;;22.50;99.90;;;;;;5087095;28;20454;-69
2023/03/18 11:25:39;;;;;;;17.13;16.13;;;21.70;99.90;;;;;;5088063;28;20482;-68
2023/03/18 11:28:21;;;;;;;17.13;15.67;;;20.80;99.90;;;;;;5089353;28;21194;-71
2023/03/18 11:30:51;;;;;;;16.40;15.50;;;20.40;99.90;;;;;;5096866;28;20977;-70
2023/03/18 11:33:23;;;;;;;16.43;15.43;;;20.10;99.90;;;;;;5088406;28;20466;-70
2023/03/18 11:35:54;;;;;;;15.50;14.80;;;20.10;99.90;;;;;;5090687;28;20473;-70
2023/03/18 11:38:27;;;;;;;16.47;15.50;;;20.20;99.90;;;;;;5086923;28;20511;-70
2023/03/18 11:41:06;;;;;;;16.57;15.73;;;20.50;99.90;;;;;;5086289;28;20466;-72
2023/03/18 11:43:35;;;;;;;16.40;15.47;;;21.00;99.90;;;;;;5087697;28;20923;-71
2023/03/18 11:46:05;;;;;;;15.93;15.03;;;21.00;99.90;;;;;;5087267;28;20462;-70
2023/03/18 11:48:36;;;;;;;16.17;15.30;;;20.70;99.90;;;;;;5093758;28;20466;-72
2023/03/18 11:51:26;;;;;;;16.00;15.20;;;20.80;99.90;;;;;;5090486;28;20546;-72
2023/03/18 11:54:11;;;;;;;14.77;13.97;;;20.70;99.90;;;;;;5084208;28;20457;-70
2023/03/18 11:56:45;;;;;;;15.30;13.97;;;20.80;99.90;;;;;;5091395;28;20911;-71
2023/03/18 11:59:32;;;;;;;15.50;14.43;;;21.60;99.90;;;;;;5086782;28;20964;-71
2023/03/18 12:02:18;;;;;;;15.33;14.63;;;22.20;99.50;;;;;;5085359;28;20461;-71
2023/03/18 12:05:21;;;;;;;15.50;14.80;;;22.00;99.30;;;;;;5089770;28;20488;-71
2023/03/18 12:08:04;;;;;;;14.97;14.33;;;21.60;98.70;;;;;;5086209;28;20544;-71
2023/03/18 12:10:34;;;;;;;15.73;14.83;;;22.10;97.80;;;;;;5089332;28;21016;-72
2023/03/18 12:13:25;;;;;;;15.20;14.50;;;22.70;96.30;;;;;;5088320;28;20461;-71
2023/03/18 12:16:02;;;;;;;15.87;14.90;;;22.60;96.40;;;;;;5081244;28;20492;-72
2023/03/18 12:18:41;;;;;;;15.30;14.43;;;22.30;96.40;;;;;;5098004;28;20473;-72
2023/03/18 12:21:27;;;;;;;16.13;15.13;;;21.90;96.70;;;;;;5087258;28;20469;-72
2023/03/18 12:24:04;;;;;;;15.93;15.07;;;21.70;97.00;;;;;;5085982;28;20564;-72
2023/03/18 12:26:39;;;;;;;15.30;14.50;;;21.20;97.60;;;;;;5089897;28;20527;-72
2023/03/18 12:29:32;;;;;;;20.07;16.17;;;21.00;98.70;;;;;;5088087;28;20854;-73
2023/03/18 12:32:18;;;;;;;16.80;15.23;;;21.10;97.80;;;;;;5091120;28;20469;-72
2023/03/18 12:35:02;;;;;;;16.37;15.10;;;20.80;98.10;;;;;;5086157;28;20453;-70
2023/03/18 12:37:37;;;;;;;15.20;14.50;;;20.60;99.90;;;;;;5092558;28;21029;-72
2023/03/18 12:40:29;;;;;;;15.97;15.00;;;20.50;99.10;;;;;;5093079;28;20457;-72
2023/03/18 12:43:20;;;;;;;15.90;15.00;;;20.30;98.80;;;;;;5096456;28;21028;-73
2023/03/18 12:45:53;;;;;;;15.83;14.83;;;20.20;98.70;;;;;;5089332;28;20967;-72
2023/03/18 12:48:27;;;;;;;15.77;14.67;;;20.30;98.60;;;;;;5089088;28;20465;-73